createdAt,value
2022-08-22T08:08:04.221Z,98975.25
2022-08-22T08:10:39.782Z,98972.25
2022-08-22T08:13:13.675Z,98982.31
2022-08-22T08:15:46.190Z,98974.63
2022-08-22T08:18:22.187Z,98982.16
2022-08-22T08:20:53.841Z,98983.69
2022-08-22T08:23:25.383Z,98975.53
2022-08-22T08:26:01.183Z,98969.38
2022-08-22T08:28:35.774Z,98975.41
2022-08-22T08:31:10.970Z,98979.91
2022-08-22T08:33:42.782Z,98986.00
2022-08-22T08:36:27.460Z,98986.00
2022-08-22T08:39:10.623Z,98989.66
2022-08-22T08:42:01.553Z,99000.16
2022-08-22T08:44:57.222Z,99008.75
2022-08-22T08:47:44.922Z,99004.25
2022-08-22T08:50:29.522Z,98999.06
2022-08-22T08:53:24.794Z,98990.28
2022-08-22T08:56:01.949Z,98992.38
2022-08-22T08:58:41.433Z,98997.69
2022-08-22T09:01:38.214Z,99003.00
2022-08-22T09:04:32.483Z,99002.25
2022-08-22T09:07:28.229Z,99003.19
2022-08-22T09:10:16.763Z,99010.78
2022-08-22T09:13:12.213Z,98997.69
2022-08-22T09:16:03.541Z,99004.56
2022-08-22T09:19:02.452Z,99003.28
2022-08-22T09:21:56.726Z,98999.34
2022-08-22T09:24:57.074Z,98999.88
2022-08-22T09:27:36.244Z,98992.66
2022-08-22T09:30:13.062Z,98997.75
2022-08-22T09:32:49.165Z,98994.09
2022-08-22T09:35:27.471Z,98995.47
2022-08-22T09:38:27.845Z,99002.63
2022-08-22T09:41:03.023Z,98988.91
2022-08-22T09:43:39.617Z,98994.84
2022-08-22T09:46:20.204Z,98999.75
2022-08-22T09:49:05.604Z,99008.63
2022-08-22T09:51:43.482Z,99002.66
2022-08-22T09:54:31.356Z,98999.91
2022-08-22T09:57:24.498Z,98999.41
2022-08-22T10:00:14.898Z,99007.66
2022-08-22T10:02:59.400Z,99005.06
2022-08-22T10:05:44.244Z,99005.44
2022-08-22T10:08:33.155Z,98997.25
2022-08-22T10:11:19.579Z,99000.25
2022-08-22T10:14:02.545Z,98993.94
2022-08-22T10:16:44.295Z,99001.47
2022-08-22T10:19:23.415Z,98998.78
2022-08-22T10:22:18.982Z,99004.81
2022-08-22T10:24:58.578Z,98999.78
2022-08-22T10:27:42.875Z,98996.19
2022-08-22T10:30:18.652Z,98993.94
2022-08-22T10:32:52.989Z,98995.13
2022-08-22T10:35:33.643Z,98996.84
2022-08-22T10:38:10.657Z,98998.81
2022-08-22T10:40:48.263Z,98995.97
2022-08-22T10:43:28.762Z,99007.13
2022-08-22T10:46:12.513Z,99004.19
2022-08-22T10:48:49.820Z,99005.34
2022-08-22T10:51:28.673Z,98993.69
2022-08-22T10:54:10.276Z,98995.59
2022-08-22T10:56:45.660Z,99000.22
2022-08-22T10:59:27.906Z,98994.41
2022-08-22T11:02:12.551Z,98995.94
2022-08-22T11:05:03.913Z,99002.59
2022-08-22T11:07:48.712Z,98995.16
2022-08-22T11:10:29.764Z,99005.22
2022-08-22T11:13:14.517Z,98997.03
2022-08-22T11:16:04.528Z,98992.72
2022-08-22T11:19:02.925Z,98995.59
2022-08-22T11:21:47.634Z,98977.13
2022-08-22T11:25:00.223Z,98973.97
2022-08-22T11:27:42.218Z,98972.00
2022-08-22T11:30:18.763Z,98972.94
2022-08-22T11:33:20.153Z,98971.06
2022-08-22T11:35:57.077Z,98975.00
2022-08-22T11:38:37.266Z,98973.31
2022-08-22T11:41:14.315Z,98977.63
2022-08-22T11:43:57.638Z,98979.44
2022-08-22T11:46:31.672Z,98976.66
2022-08-22T11:49:27.040Z,98973.78
2022-08-22T11:52:14.347Z,98969.53
2022-08-22T11:55:17.248Z,98963.38
2022-08-22T11:57:50.467Z,98969.59
2022-08-22T12:00:30.915Z,98973.78
2022-08-22T12:03:25.213Z,98968.09
2022-08-22T12:06:02.051Z,98963.31
2022-08-22T12:08:52.427Z,98968.69
2022-08-22T12:11:26.734Z,98956.25
2022-08-22T12:14:06.500Z,98963.63
2022-08-22T12:16:45.166Z,98958.69
2022-08-22T12:19:24.082Z,98959.06
2022-08-22T12:22:25.414Z,98951.56
2022-08-22T12:25:14.489Z,98954.28
2022-08-22T12:28:01.009Z,98950.09
2022-08-22T12:30:38.592Z,98943.00
2022-08-22T12:33:33.072Z,98944.66
2022-08-22T12:36:40.296Z,98949.34
2022-08-22T12:39:27.714Z,98947.69
2022-08-22T12:42:25.828Z,98944.13
2022-08-22T12:45:14.020Z,98951.50
2022-08-22T12:48:00.369Z,98938.81
2022-08-22T12:50:39.936Z,98939.31
2022-08-22T12:53:38.824Z,98942.22
2022-08-22T12:56:18.127Z,98933.38
2022-08-22T12:59:22.544Z,98938.69
2022-08-22T13:01:55.116Z,98938.97
2022-08-22T13:04:32.555Z,98943.25
2022-08-22T13:07:09.000Z,98939.63
2022-08-22T13:09:40.137Z,98938.41
2022-08-22T13:12:26.476Z,98934.84
2022-08-22T13:15:02.536Z,98925.78
2022-08-22T13:17:32.259Z,98940.09
2022-08-22T13:20:13.506Z,98930.75
2022-08-22T13:22:45.593Z,98926.00
2022-08-22T13:25:26.492Z,98933.34
2022-08-22T13:27:59.074Z,98930.72
2022-08-22T13:30:37.519Z,98934.72
2022-08-22T13:33:11.021Z,98942.00
2022-08-22T13:35:52.334Z,98940.03
2022-08-22T13:38:27.089Z,98945.41
2022-08-22T13:40:58.971Z,98947.97
2022-08-22T13:43:31.531Z,98952.56
2022-08-22T13:46:03.428Z,98957.09
2022-08-22T13:48:49.474Z,98954.03
2022-08-22T13:51:32.561Z,98949.25
2022-08-22T13:54:21.556Z,98943.94
2022-08-22T13:56:56.790Z,98946.88
2022-08-22T13:59:54.215Z,98949.59
2022-08-22T14:02:43.477Z,98949.84
2022-08-22T14:05:18.503Z,98949.19
2022-08-22T14:07:58.530Z,98957.28
2022-08-22T14:10:34.566Z,98965.97
2022-08-22T14:13:28.800Z,98977.63
2022-08-22T14:16:02.143Z,98978.59
2022-08-22T14:18:45.607Z,98980.94
2022-08-22T14:21:28.830Z,98978.81
2022-08-22T14:24:18.846Z,98968.03
2022-08-22T14:27:05.712Z,98974.91
2022-08-22T14:29:45.146Z,98975.94
2022-08-22T14:32:43.673Z,98979.47
2022-08-22T14:35:37.474Z,98984.66
2022-08-22T14:38:27.140Z,98986.47
2022-08-22T14:41:03.228Z,98983.94
2022-08-22T14:43:50.705Z,98975.69
2022-08-22T14:46:28.346Z,98986.44
2022-08-22T14:49:28.725Z,98984.63
2022-08-22T14:52:09.020Z,98991.47
2022-08-22T14:54:39.155Z,98985.72
2022-08-22T14:57:20.168Z,98986.84
2022-08-22T14:59:53.065Z,98987.03
2022-08-22T15:02:29.754Z,98994.09
2022-08-22T15:05:05.579Z,98986.47
2022-08-22T15:07:37.690Z,98988.47
2022-08-22T15:10:11.860Z,98990.19
2022-08-22T15:12:50.053Z,98994.47
2022-08-22T15:15:32.725Z,98989.28
2022-08-22T15:18:35.092Z,98986.47
2022-08-22T15:21:08.776Z,98969.72
2022-08-22T15:23:45.000Z,98979.94
2022-08-22T15:26:24.568Z,98969.34
2022-08-22T15:29:07.884Z,98983.31
2022-08-22T15:31:41.501Z,98981.44
2022-08-22T15:34:24.322Z,98979.59
2022-08-22T15:37:14.266Z,98986.44
2022-08-22T15:40:11.828Z,98982.94
2022-08-22T15:42:45.449Z,98984.50
2022-08-22T15:45:31.293Z,98980.16
2022-08-22T15:48:06.325Z,98976.81
2022-08-22T15:50:41.862Z,98972.06
2022-08-22T15:53:15.694Z,98969.75
2022-08-22T15:56:19.915Z,98970.66
2022-08-22T15:58:56.002Z,98970.66
2022-08-22T16:01:28.120Z,98970.03
2022-08-22T16:04:03.734Z,98971.13
2022-08-22T16:06:44.725Z,98972.84
2022-08-22T16:09:37.027Z,98975.47
2022-08-22T16:12:13.564Z,98982.75
2022-08-22T16:14:54.052Z,98983.19
2022-08-22T16:17:44.105Z,98984.50
2022-08-22T16:20:33.958Z,98986.69
2022-08-22T16:23:09.816Z,98981.59
2022-08-22T16:26:00.213Z,98983.53
2022-08-22T16:28:56.987Z,98980.09
2022-08-22T16:31:29.127Z,98990.44
2022-08-22T16:34:21.094Z,98990.69
2022-08-22T16:37:13.843Z,99000.31
2022-08-22T16:39:46.201Z,98991.78
2022-08-22T16:42:28.153Z,98986.75
2022-08-22T16:45:12.674Z,98993.81
2022-08-22T16:47:54.523Z,98993.25
2022-08-22T16:50:37.213Z,98995.09
2022-08-22T16:53:14.263Z,98982.31
2022-08-22T16:56:07.977Z,98970.13
2022-08-22T16:59:22.025Z,98970.41
2022-08-22T17:02:13.260Z,98972.06
2022-08-22T17:04:53.136Z,98975.97
2022-08-22T17:07:35.945Z,98984.03
2022-08-22T17:10:34.845Z,98984.19
2022-08-22T17:13:26.499Z,98994.53
2022-08-22T17:16:10.375Z,98987.75
2022-08-22T17:18:57.282Z,98994.22
2022-08-22T17:21:30.563Z,98979.78
2022-08-22T17:24:31.710Z,98986.91
2022-08-22T17:27:14.494Z,98985.78
2022-08-22T17:30:02.839Z,98989.44
2022-08-22T17:32:41.773Z,98993.16
2022-08-22T17:35:27.317Z,98989.63
2022-08-22T17:38:11.033Z,98999.09
2022-08-22T17:40:54.878Z,98995.66
2022-08-22T17:43:48.692Z,98995.84
2022-08-22T17:46:35.091Z,98991.06
2022-08-22T17:49:17.047Z,98995.66
2022-08-22T17:51:53.153Z,98989.97
2022-08-22T17:54:29.635Z,98999.03
2022-08-22T17:57:06.356Z,99001.16
2022-08-22T17:59:47.152Z,99007.50
2022-08-22T18:02:20.797Z,99007.84
2022-08-22T18:04:59.462Z,99016.38
2022-08-22T18:07:47.117Z,99019.56
2022-08-22T18:10:25.989Z,99024.75
2022-08-22T18:13:07.084Z,99018.56
2022-08-22T18:15:46.633Z,99023.66
2022-08-22T18:18:30.094Z,99019.41
2022-08-22T18:21:05.520Z,99024.59
2022-08-22T18:23:40.874Z,99016.88
2022-08-22T18:26:23.902Z,99009.19
2022-08-22T18:28:59.235Z,99016.22
2022-08-22T18:31:40.153Z,99019.56
2022-08-22T18:34:20.495Z,99016.22
2022-08-22T18:37:00.043Z,99014.44
2022-08-22T18:39:33.409Z,99016.13
2022-08-22T18:42:10.829Z,99017.03
2022-08-22T18:44:45.478Z,99024.06
2022-08-22T18:47:18.325Z,99030.94
2022-08-22T18:49:54.516Z,99050.09
2022-08-22T18:52:35.688Z,99047.66
2022-08-22T18:55:33.027Z,99065.06
2022-08-22T18:58:43.342Z,99082.63
2022-08-22T19:01:43.984Z,99076.84
2022-08-22T19:04:43.057Z,99070.91
2022-08-22T19:07:51.447Z,99068.41
2022-08-22T19:10:35.190Z,99073.03
2022-08-22T19:13:37.644Z,99064.69
2022-08-22T19:16:17.719Z,99054.09
2022-08-22T19:18:54.467Z,99065.31
2022-08-22T19:21:37.729Z,99066.13
2022-08-22T19:24:09.285Z,99068.09
2022-08-22T19:26:44.255Z,99077.81
2022-08-22T19:29:38.534Z,99076.28
2022-08-22T19:32:12.890Z,99079.94
2022-08-22T19:34:47.687Z,99085.44
2022-08-22T19:37:30.523Z,99078.56
2022-08-22T19:40:05.981Z,99080.41
2022-08-22T19:42:42.404Z,99072.72
2022-08-22T19:45:26.834Z,99079.53
2022-08-22T19:48:00.584Z,99082.19
2022-08-22T19:50:37.065Z,99084.03
2022-08-22T19:53:25.289Z,99090.19
2022-08-22T19:56:08.756Z,99107.63
2022-08-22T19:59:02.195Z,99114.88
2022-08-22T20:01:44.779Z,99118.38
2022-08-22T20:04:35.704Z,99121.03
2022-08-22T20:07:15.356Z,99120.28
2022-08-22T20:09:51.738Z,99115.09
2022-08-22T20:12:32.445Z,99112.50
2022-08-22T20:15:13.585Z,99117.91
2022-08-22T20:18:11.232Z,99115.38
2022-08-22T20:20:39.757Z,99118.13
2022-08-22T20:23:17.125Z,99119.13
2022-08-22T20:25:50.451Z,99122.75
2022-08-22T20:28:35.882Z,99125.41
2022-08-22T20:31:10.818Z,99115.06
2022-08-22T20:33:43.811Z,99120.09
2022-08-22T20:36:27.692Z,99116.59
2022-08-22T20:39:03.108Z,99110.50
2022-08-22T20:41:36.991Z,99112.97
2022-08-22T20:44:13.694Z,99115.47
2022-08-22T20:46:56.106Z,99106.09
2022-08-22T20:49:28.904Z,99107.78
2022-08-22T20:52:00.218Z,99102.09
2022-08-22T20:54:33.156Z,99103.63
2022-08-22T20:57:03.938Z,99096.78
2022-08-22T20:59:37.300Z,99090.75
2022-08-22T21:02:15.906Z,99099.38
2022-08-22T21:04:52.912Z,99083.09
2022-08-22T21:07:24.968Z,99085.94
2022-08-22T21:10:12.319Z,99081.06
2022-08-22T21:12:41.225Z,99076.03
2022-08-22T21:15:10.709Z,99073.72
2022-08-22T21:17:39.312Z,99075.41
2022-08-22T21:20:21.658Z,99067.63
2022-08-22T21:22:50.964Z,99068.34
2022-08-22T21:25:21.206Z,99075.06
2022-08-22T21:27:50.149Z,99068.41
2022-08-22T21:30:26.775Z,99067.63
2022-08-22T21:32:56.620Z,99065.81
2022-08-22T21:35:31.375Z,99065.81
2022-08-22T21:38:01.561Z,99071.00
2022-08-22T21:40:36.879Z,99073.56
2022-08-22T21:43:09.664Z,99072.81
2022-08-22T21:45:44.327Z,99072.94
2022-08-22T21:48:34.505Z,99072.06
2022-08-22T21:51:25.057Z,99069.47
2022-08-22T21:54:24.633Z,99073.66
2022-08-22T21:56:56.874Z,99070.94
2022-08-22T21:59:51.169Z,99060.34
2022-08-22T22:02:31.090Z,99069.03
2022-08-22T22:05:01.569Z,99068.88
2022-08-22T22:07:31.590Z,99066.28
2022-08-22T22:10:00.357Z,99071.69
2022-08-22T22:12:30.451Z,99076.94
2022-08-22T22:14:59.217Z,99077.84
2022-08-22T22:17:28.288Z,99080.44
2022-08-22T22:19:57.167Z,99080.31
2022-08-22T22:22:25.705Z,99079.38
2022-08-22T22:24:54.299Z,99075.06
2022-08-22T22:27:22.886Z,99075.81
2022-08-22T22:29:53.059Z,99072.53
2022-08-22T22:32:21.707Z,99075.88
2022-08-22T22:34:50.437Z,99075.06
2022-08-22T22:37:19.280Z,99072.53
2022-08-22T22:39:48.024Z,99083.94
2022-08-22T22:42:16.697Z,99099.59
2022-08-22T22:44:47.491Z,99101.50
2022-08-22T22:47:18.266Z,99095.84
2022-08-22T22:49:47.291Z,99097.03
2022-08-22T22:52:16.054Z,99085.69
2022-08-22T22:54:46.145Z,99090.75
2022-08-22T22:57:25.326Z,99084.66
2022-08-22T22:59:54.851Z,99078.56
2022-08-22T23:02:25.361Z,99088.94
2022-08-22T23:04:56.661Z,99091.59
2022-08-22T23:07:28.805Z,99090.03
2022-08-22T23:10:05.362Z,99090.88
2022-08-22T23:12:36.437Z,99091.81
2022-08-22T23:15:05.617Z,99091.19
2022-08-22T23:17:35.969Z,99098.19
2022-08-22T23:20:05.883Z,99093.78
2022-08-22T23:22:35.097Z,99091.88
2022-08-22T23:25:03.935Z,99091.88
2022-08-22T23:27:32.628Z,99091.03
2022-08-22T23:30:02.356Z,99100.47
2022-08-22T23:32:30.997Z,99097.75
2022-08-22T23:35:01.028Z,99092.34
2022-08-22T23:37:29.627Z,99088.84
2022-08-22T23:39:58.313Z,99088.94
2022-08-22T23:42:27.347Z,99084.50
2022-08-22T23:44:55.925Z,99086.97
2022-08-22T23:47:24.960Z,99083.63
2022-08-22T23:49:53.859Z,99075.97
2022-08-22T23:52:23.897Z,99081.78
2022-08-22T23:54:54.403Z,99082.41
2022-08-22T23:57:27.516Z,99085.91
2022-08-22T23:59:57.286Z,99088.56
